This is the latest recevied weather packets stored in our database for station/object NG7M. If no packets are shown the sender has not sent any weather packets the latest 10 day(s).
| Time | Temp. | Humidity | Pressure | Rain* | Wind** | Luminosity | Snow |
|---|---|---|---|---|---|---|---|
| 1778037903 | 14.44° C | 46% | 1008.8 hPa | 0 mm | - | - | - |
| 1778035804 | 15° C | 43% | 1008.2 hPa | 0 mm | - | - | - |
| 1778034004 | 16.11° C | 39% | 1008.1 hPa | 0 mm | - | - | - |
| 1778032204 | 16.67° C | 38% | 1007.8 hPa | 0 mm | - | - | - |
| 1778031604 | 16.67° C | 37% | 1007.6 hPa | 0 mm | - | - | - |
| 1778028603 | 16.67° C | 36% | 1007.6 hPa | 0 mm | - | - | - |
| 1778027404 | 16.67° C | 36% | 1007.6 hPa | 0 mm | - | - | - |
| 1778025604 | 16.67° C | 36% | 1007.9 hPa | 0 mm | - | - | - |
| 1778025004 | 17.22° C | 35% | 1008 hPa | 0 mm | - | - | - |
| 1778024404 | 16.67° C | 36% | 1008 hPa | 0 mm | - | - | - |
| 1778022304 | 17.78° C | 36% | 1008.2 hPa | 0 mm | - | - | - |
| 1778020504 | 16.67° C | 38% | 1008.7 hPa | 0 mm | - | - | - |
| 1778019904 | 16.67° C | 39% | 1008.8 hPa | 0 mm | - | - | - |
| 1778018403 | 15.56° C | 44% | 1009.3 hPa | 0 mm | - | - | - |
| 1778013903 | 12.78° C | 63% | 1010.3 hPa | 0.25 mm | - | - | - |
| 1778013304 | 13.33° C | 60% | 1010.3 hPa | 0 mm | - | - | - |
| 1778011504 | 14.44° C | 41% | 1009.9 hPa | 0 mm | - | - | - |
| 1778008504 | 14.44° C | 41% | 1009.5 hPa | 0 mm | - | - | - |
| 1778007904 | 14.44° C | 42% | 1009.5 hPa | 0 mm | - | - | - |
| 1778007604 | 14.44° C | 43% | 1009.5 hPa | 0 mm | - | - | - |
| 1778005803 | 13.89° C | 44% | 1009.8 hPa | 0 mm | - | - | - |
| 1778002804 | 13.89° C | 46% | 1009.9 hPa | 0 mm | - | - | - |
| 1778001303 | 13.89° C | 45% | 1009.5 hPa | 0 mm | - | - | - |
| 1778000703 | 13.89° C | 44% | 1009.3 hPa | 0 mm | - | - | - |
| 1777999504 | 13.89° C | 45% | 1009.4 hPa | 0 mm | - | - | - |
* Rain latest hour (hover to see other rain measurements)
** Current wind speed in m/s (hover to see current wind gust speed)